createdAt,value
2022-09-04T00:01:44.924Z,100953.31
2022-09-04T00:04:18.508Z,100957.13
2022-09-04T00:06:50.477Z,100953.56
2022-09-04T00:09:20.045Z,100968.88
2022-09-04T00:11:50.182Z,100971.63
2022-09-04T00:14:19.762Z,100954.25
2022-09-04T00:16:51.350Z,100968.06
2022-09-04T00:19:24.139Z,100970.81
2022-09-04T00:21:53.387Z,100953.22
2022-09-04T00:24:23.239Z,100980.91
2022-09-04T00:26:54.448Z,100972.72
2022-09-04T00:29:25.294Z,100973.53
2022-09-04T00:31:58.276Z,100942.41
2022-09-04T00:34:38.744Z,100989.13
2022-09-04T00:37:07.500Z,100988.28
2022-09-04T00:39:38.289Z,100976.00
2022-09-04T00:42:11.280Z,100982.81
2022-09-04T00:45:02.266Z,100988.28
2022-09-04T00:47:40.283Z,100985.56
2022-09-04T00:50:22.492Z,100991.03
2022-09-04T00:52:59.798Z,100992.94
2022-09-04T00:55:41.973Z,100991.03
2022-09-04T00:58:25.246Z,100984.63
2022-09-04T01:00:53.112Z,100983.78
2022-09-04T01:03:44.119Z,100993.75
2022-09-04T01:06:30.683Z,100989.59
2022-09-04T01:09:06.340Z,101001.13
2022-09-04T01:11:38.329Z,100981.03
2022-09-04T01:14:13.356Z,101005.78
2022-09-04T01:16:45.395Z,101010.19
2022-09-04T01:19:29.988Z,101005.78
2022-09-04T01:22:16.497Z,101018.38
2022-09-04T01:25:05.712Z,101008.50
2022-09-04T01:27:37.984Z,101010.41
2022-09-04T01:30:10.124Z,101014.22
2022-09-04T01:32:45.793Z,101020.53
2022-09-04T01:35:20.093Z,101017.78
2022-09-04T01:37:53.357Z,101024.09
2022-09-04T01:40:37.962Z,101026.00
2022-09-04T01:43:11.444Z,101023.25
2022-09-04T01:45:48.484Z,101017.78
2022-09-04T01:48:18.460Z,101021.59
2022-09-04T01:50:47.694Z,101024.09
2022-09-04T01:53:17.242Z,101028.97
2022-09-04T01:55:48.842Z,101024.31
2022-09-04T01:58:20.660Z,101028.72
2022-09-04T02:00:57.604Z,101028.50
2022-09-04T02:03:27.767Z,101032.31
2022-09-04T02:06:02.739Z,101039.44
2022-09-04T02:08:36.525Z,101035.25
2022-09-04T02:11:08.817Z,101032.53
2022-09-04T02:13:43.761Z,101028.81
2022-09-04T02:16:15.507Z,101043.25
2022-09-04T02:18:48.018Z,101044.53
2022-09-04T02:21:19.289Z,101047.03
2022-09-04T02:23:51.561Z,101056.09
2022-09-04T02:26:21.595Z,101054.41
2022-09-04T02:28:56.298Z,101059.88
2022-09-04T02:31:29.918Z,101056.09
2022-09-04T02:34:01.527Z,101058.00
2022-09-04T02:36:31.546Z,101060.72
2022-09-04T02:39:01.643Z,101062.88
2022-09-04T02:41:34.112Z,101059.06
2022-09-04T02:44:11.700Z,101060.94
2022-09-04T02:46:45.612Z,101042.38
2022-09-04T02:49:16.357Z,101063.69
2022-09-04T02:51:54.532Z,101062.63
2022-09-04T02:54:31.238Z,101059.31
2022-09-04T02:57:03.198Z,101069.16
2022-09-04T02:59:39.214Z,101065.63
2022-09-04T03:02:08.193Z,101065.34
2022-09-04T03:04:39.317Z,101067.97
2022-09-04T03:07:10.774Z,101040.38
2022-09-04T03:09:40.887Z,101064.53
2022-09-04T03:12:26.574Z,101062.63
2022-09-04T03:15:01.310Z,101065.34
2022-09-04T03:17:31.016Z,101051.31
2022-09-04T03:20:02.060Z,101070.84
2022-09-04T03:22:31.739Z,101068.09
2022-09-04T03:25:04.240Z,101067.25
2022-09-04T03:27:32.753Z,101072.72
2022-09-04T03:30:04.032Z,101064.38
2022-09-04T03:32:36.380Z,101032.53
2022-09-04T03:35:07.800Z,101080.94
2022-09-04T03:37:52.855Z,101083.69
2022-09-04T03:40:34.836Z,101085.56
2022-09-04T03:43:16.937Z,101085.56
2022-09-04T03:45:49.762Z,101078.19
2022-09-04T03:48:25.267Z,101088.31
2022-09-04T03:50:57.228Z,101093.78
2022-09-04T03:53:30.865Z,101088.31
2022-09-04T03:56:12.786Z,101064.41
2022-09-04T03:58:43.795Z,101092.97
2022-09-04T04:01:25.020Z,101067.16
2022-09-04T04:04:06.146Z,101099.50
2022-09-04T04:06:37.097Z,101104.72
2022-09-04T04:09:34.947Z,101111.88
2022-09-04T04:12:13.558Z,101109.41
2022-09-04T04:15:00.244Z,101106.66
2022-09-04T04:17:39.807Z,101114.03
2022-09-04T04:20:13.235Z,101100.34
2022-09-04T04:23:02.095Z,101102.81
2022-09-04T04:25:48.833Z,101105.81
2022-09-04T04:28:29.604Z,101109.41
2022-09-04T04:31:00.574Z,101108.56
2022-09-04T04:33:51.256Z,101119.50
2022-09-04T04:36:22.748Z,101127.72
2022-09-04T04:39:09.882Z,101130.44
2022-09-04T04:41:58.098Z,101130.44
2022-09-04T04:44:50.594Z,101118.50
2022-09-04T04:47:22.945Z,101121.63
2022-09-04T04:49:58.874Z,101133.41
2022-09-04T04:52:30.394Z,101133.41
2022-09-04T04:55:17.214Z,101128.84
2022-09-04T04:57:49.956Z,101140.78
2022-09-04T05:00:25.315Z,101148.16
2022-09-04T05:03:02.082Z,101145.41
2022-09-04T05:05:47.605Z,101108.16
2022-09-04T05:08:20.185Z,101144.56
2022-09-04T05:10:48.767Z,101157.19
2022-09-04T05:13:20.835Z,101158.47
2022-09-04T05:16:07.956Z,101170.88
2022-09-04T05:18:37.546Z,101173.59
2022-09-04T05:21:10.121Z,101178.25
2022-09-04T05:23:40.133Z,101177.41
2022-09-04T05:26:12.576Z,101185.38
2022-09-04T05:28:46.493Z,101172.03
2022-09-04T05:31:19.395Z,101183.56
2022-09-04T05:33:52.666Z,101182.72
2022-09-04T05:36:25.521Z,101199.91
2022-09-04T05:38:58.666Z,101200.97
2022-09-04T05:41:36.455Z,101199.91
2022-09-04T05:44:13.994Z,101202.03
2022-09-04T05:46:46.501Z,101208.34
2022-09-04T05:49:25.723Z,101214.66
2022-09-04T05:52:19.031Z,101210.22
2022-09-04T05:55:00.163Z,101216.53
2022-09-04T05:57:33.824Z,101221.19
2022-09-04T06:00:09.852Z,101212.09
2022-09-04T06:03:11.533Z,101223.91
2022-09-04T06:05:58.814Z,101233.16
2022-09-04T06:09:08.156Z,101242.19
2022-09-04T06:11:42.458Z,101241.63
2022-09-04T06:14:19.338Z,101242.44
2022-09-04T06:16:53.411Z,101240.56
2022-09-04T06:19:48.814Z,101246.03
2022-09-04T06:23:02.364Z,101243.28
2022-09-04T06:25:40.346Z,101243.28
2022-09-04T06:28:38.510Z,101239.72
2022-09-04T06:31:10.687Z,101248.75
2022-09-04T06:33:50.741Z,101252.28
2022-09-04T06:36:30.535Z,101253.13
2022-09-04T06:39:19.994Z,101251.50
2022-09-04T06:41:57.796Z,101256.97
2022-09-04T06:44:34.124Z,101265.16
2022-09-04T06:47:07.046Z,101256.97
2022-09-04T06:49:38.809Z,101264.06
2022-09-04T06:52:13.512Z,101253.00
2022-09-04T06:54:48.493Z,101267.91
2022-09-04T06:57:38.588Z,101264.06
2022-09-04T07:00:10.522Z,101270.88
2022-09-04T07:02:57.645Z,101258.59
2022-09-04T07:05:29.184Z,101275.88
2022-09-04T07:08:02.110Z,101268.72
2022-09-04T07:10:31.754Z,101265.03
2022-09-04T07:13:48.029Z,101275.88
2022-09-04T07:16:25.855Z,101240.25
2022-09-04T07:19:11.698Z,101274.44
2022-09-04T07:21:44.175Z,101276.34
2022-09-04T07:24:31.907Z,101269.69
2022-09-04T07:27:03.011Z,101283.47
2022-09-04T07:29:32.743Z,101284.31
2022-09-04T07:32:04.660Z,101272.84
2022-09-04T07:34:37.636Z,101287.88
2022-09-04T07:37:07.441Z,101290.84
2022-09-04T07:39:38.044Z,101296.31
2022-09-04T07:42:08.970Z,101294.16
2022-09-04T07:44:42.481Z,101309.75
2022-09-04T07:47:14.398Z,101298.94
2022-09-04T07:49:49.257Z,101264.47
2022-09-04T07:52:23.755Z,101303.91
2022-09-04T07:55:13.923Z,101306.19
2022-09-04T07:57:52.857Z,101296.19
2022-09-04T08:00:22.763Z,101268.66
2022-09-04T08:03:04.775Z,101308.94
2022-09-04T08:05:32.935Z,101310.00
2022-09-04T08:08:39.736Z,101314.41
2022-09-04T08:11:15.018Z,101313.56
2022-09-04T08:13:50.788Z,101315.22
2022-09-04T08:16:20.489Z,101312.75
2022-09-04T08:19:01.563Z,101317.16
2022-09-04T08:21:30.530Z,101292.56
2022-09-04T08:24:19.180Z,101319.03
2022-09-04T08:26:52.625Z,101319.03
2022-09-04T08:29:31.190Z,101315.19
2022-09-04T08:32:08.921Z,101297.69
2022-09-04T08:34:59.718Z,101324.75
2022-09-04T08:37:28.568Z,101327.25
2022-09-04T08:40:04.577Z,101330.00
2022-09-04T08:42:58.306Z,101343.66
2022-09-04T08:45:49.937Z,101292.91
2022-09-04T08:49:11.648Z,101331.13
2022-09-04T08:51:52.323Z,101336.59
2022-09-04T08:54:59.136Z,101342.00
2022-09-04T08:57:43.046Z,101349.34
2022-09-04T09:00:11.839Z,101344.72
2022-09-04T09:03:21.183Z,101345.56
2022-09-04T09:06:20.895Z,101343.88
2022-09-04T09:09:17.424Z,101350.19
2022-09-04T09:12:41.598Z,101358.41
2022-09-04T09:15:38.457Z,101351.25
2022-09-04T09:18:18.063Z,101337.91
2022-09-04T09:20:47.493Z,101349.34
2022-09-04T09:23:22.195Z,101346.84
2022-09-04T09:25:53.198Z,101343.06
2022-09-04T09:28:59.594Z,101345.56
2022-09-04T09:32:07.197Z,101338.41
2022-09-04T09:35:16.860Z,101343.06
2022-09-04T09:38:20.338Z,101339.47
2022-09-04T09:41:21.962Z,101343.06
2022-09-04T09:44:26.718Z,101343.88
2022-09-04T09:47:13.371Z,101339.47
2022-09-04T09:50:03.083Z,101334.84
2022-09-04T09:53:10.336Z,101327.47
2022-09-04T09:56:03.356Z,101329.38
2022-09-04T09:59:15.869Z,101327.47
2022-09-04T10:01:58.900Z,101327.69
2022-09-04T10:05:05.056Z,101332.09
2022-09-04T10:07:54.148Z,101333.56
2022-09-04T10:10:58.172Z,101327.47
2022-09-04T10:13:50.057Z,101327.47
2022-09-04T10:16:30.238Z,101327.25
2022-09-04T10:19:18.321Z,101283.88
2022-09-04T10:22:16.818Z,101327.25
2022-09-04T10:24:57.559Z,101334.63
2022-09-04T10:27:52.518Z,101329.16
2022-09-04T10:30:20.407Z,101329.16
2022-09-04T10:33:19.235Z,101323.69
2022-09-04T10:35:55.004Z,101331.88
2022-09-04T10:38:58.807Z,101327.25
2022-09-04T10:41:36.900Z,101329.16
2022-09-04T10:44:37.587Z,101329.16
2022-09-04T10:47:12.465Z,101306.03
2022-09-04T10:49:49.098Z,101329.16
2022-09-04T10:53:03.762Z,101294.94
2022-09-04T10:55:42.454Z,101335.47
2022-09-04T10:58:42.247Z,101330.00
2022-09-04T11:01:38.759Z,101327.25
2022-09-04T11:04:45.780Z,101321.78
2022-09-04T11:07:30.357Z,101328.31
2022-09-04T11:10:13.822Z,101328.09
2022-09-04T11:12:53.139Z,101328.91
2022-09-04T11:15:43.171Z,101320.94
2022-09-04T11:18:35.375Z,101325.13
2022-09-04T11:21:31.101Z,101319.44
2022-09-04T11:24:23.059Z,101318.59
2022-09-04T11:27:09.961Z,101316.94
2022-09-04T11:29:47.872Z,101322.78
2022-09-04T11:32:27.173Z,101317.06
2022-09-04T11:35:29.776Z,101323.38
2022-09-04T11:38:03.316Z,101320.41
2022-09-04T11:41:07.869Z,101317.44
2022-09-04T11:43:45.279Z,101314.72
2022-09-04T11:46:27.416Z,101316.59
2022-09-04T11:49:07.881Z,101320.41
2022-09-04T11:52:04.032Z,101311.13
2022-09-04T11:55:06.984Z,101320.19
2022-09-04T11:57:43.914Z,101313.03
2022-09-04T12:00:12.571Z,101311.34
2022-09-04T12:03:02.201Z,101315.78
2022-09-04T12:05:44.281Z,101317.66
2022-09-04T12:08:24.928Z,101302.19
2022-09-04T12:11:00.447Z,101311.34
2022-09-04T12:14:03.755Z,101312.28
2022-09-04T12:17:15.487Z,101322.31
2022-09-04T12:20:05.080Z,101275.94
2022-09-04T12:23:02.671Z,101312.19
2022-09-04T12:26:01.503Z,101320.41
2022-09-04T12:28:55.186Z,101285.94
2022-09-04T12:31:49.326Z,101312.06
2022-09-04T12:34:33.883Z,101310.06
2022-09-04T12:37:13.512Z,101278.81
2022-09-04T12:40:09.612Z,101314.44
2022-09-04T12:42:38.995Z,101315.28
2022-09-04T12:45:12.051Z,101322.44
2022-09-04T12:47:46.980Z,101321.38
2022-09-04T12:50:19.468Z,101316.75
2022-09-04T12:52:55.203Z,101320.31
2022-09-04T12:55:25.581Z,101313.75
2022-09-04T12:58:02.950Z,101323.63
2022-09-04T13:00:40.933Z,101325.31
2022-09-04T13:03:21.273Z,101316.25
2022-09-04T13:06:04.321Z,101324.25
2022-09-04T13:08:39.205Z,101326.16
2022-09-04T13:11:15.417Z,101315.06
2022-09-04T13:13:48.297Z,101322.34
2022-09-04T13:16:19.937Z,101322.34
2022-09-04T13:18:58.747Z,101310.44
2022-09-04T13:21:33.510Z,101330.28
2022-09-04T13:24:11.759Z,101335.78
2022-09-04T13:26:47.827Z,101334.13
2022-09-04T13:29:19.643Z,101327.81
2022-09-04T13:32:13.110Z,101333.03
2022-09-04T13:34:53.883Z,101316.97
2022-09-04T13:37:23.854Z,101327.56
2022-09-04T13:40:04.917Z,101298.38
2022-09-04T13:43:05.879Z,101332.44
2022-09-04T13:45:33.976Z,101328.88
2022-09-04T13:48:03.461Z,101328.88
2022-09-04T13:50:34.398Z,101331.84
2022-09-04T13:53:03.545Z,101324.94
2022-09-04T13:55:33.637Z,101333.50
2022-09-04T13:58:05.832Z,101340.06
2022-09-04T14:00:33.650Z,101333.75
2022-09-04T14:03:03.279Z,101343.03
2022-09-04T14:05:33.309Z,101340.06
2022-09-04T14:08:02.873Z,101334.84
2022-09-04T14:10:59.516Z,101330.03
2022-09-04T14:13:37.884Z,101298.94
2022-09-04T14:16:08.839Z,101335.06
2022-09-04T14:18:57.376Z,101342.19
2022-09-04T14:21:34.821Z,101333.16
2022-09-04T14:24:04.676Z,101327.69
2022-09-04T14:26:36.869Z,101326.00
2022-09-04T14:29:08.659Z,101329.59
2022-09-04T14:31:42.081Z,101333.16
2022-09-04T14:34:17.165Z,101334.00
2022-09-04T14:36:49.851Z,101335.91
2022-09-04T14:39:21.193Z,101321.03
2022-09-04T14:42:00.276Z,101326.84
2022-09-04T14:44:35.932Z,101328.75
2022-09-04T14:47:09.625Z,101329.59
2022-09-04T14:49:41.783Z,101331.47
2022-09-04T14:52:19.754Z,101330.66
2022-09-04T14:54:48.035Z,101330.66
2022-09-04T14:57:18.447Z,101304.91
2022-09-04T14:59:49.308Z,101326.00
2022-09-04T15:02:21.130Z,101322.44
2022-09-04T15:04:51.238Z,101319.69
2022-09-04T15:07:32.803Z,101303.63
2022-09-04T15:10:10.536Z,101295.03
2022-09-04T15:12:39.714Z,101305.41
2022-09-04T15:15:10.381Z,101301.25
2022-09-04T15:17:39.533Z,101283.66
2022-09-04T15:20:09.112Z,101321.75
2022-09-04T15:22:40.968Z,101323.19
2022-09-04T15:25:10.095Z,101308.31
2022-09-04T15:27:44.266Z,101318.09
2022-09-04T15:30:18.954Z,101312.97
2022-09-04T15:32:46.827Z,101311.06
2022-09-04T15:35:17.283Z,101303.34
2022-09-04T15:37:48.282Z,101311.19
2022-09-04T15:40:22.926Z,101316.19
2022-09-04T15:42:58.668Z,101314.06
2022-09-04T15:45:30.508Z,101298.00
2022-09-04T15:48:30.373Z,101314.66
2022-09-04T15:51:04.963Z,101316.56
2022-09-04T15:53:35.734Z,101312.38
2022-09-04T15:56:09.536Z,101307.97
2022-09-04T15:58:43.677Z,101306.56
2022-09-04T16:01:14.926Z,101297.59
2022-09-04T16:04:01.329Z,101313.31
2022-09-04T16:06:32.210Z,101310.22
2022-09-04T16:09:03.554Z,101279.00
2022-09-04T16:11:34.269Z,101317.03
2022-09-04T16:14:03.122Z,101313.47
2022-09-04T16:16:34.101Z,101319.78
2022-09-04T16:19:05.548Z,101310.72
2022-09-04T16:21:41.296Z,101312.34
2022-09-04T16:24:13.327Z,101315.34
2022-09-04T16:26:41.079Z,101318.09
2022-09-04T16:29:12.354Z,101311.78
2022-09-04T16:31:40.424Z,101315.34
2022-09-04T16:34:16.416Z,101301.78
2022-09-04T16:36:45.730Z,101309.88
2022-09-04T16:39:22.844Z,101310.72
2022-09-04T16:41:52.288Z,101309.63
2022-09-04T16:44:25.918Z,101313.47
2022-09-04T16:47:02.547Z,101311.56
2022-09-04T16:49:34.893Z,101282.00
2022-09-04T16:52:23.989Z,101311.56
2022-09-04T16:54:54.938Z,101315.72
2022-09-04T16:57:27.556Z,101314.88
2022-09-04T16:59:57.251Z,101312.13
2022-09-04T17:02:33.542Z,101314.88
2022-09-04T17:05:13.368Z,101305.25
2022-09-04T17:07:42.962Z,101305.25
2022-09-04T17:10:25.791Z,101308.22
2022-09-04T17:12:55.164Z,101305.47
2022-09-04T17:15:27.240Z,101308.44
2022-09-04T17:17:56.283Z,101308.44
2022-09-04T17:20:45.368Z,101305.94
2022-09-04T17:28:59.622Z,101307.84
2022-09-04T17:29:15.232Z,101303.91
2022-09-04T17:29:29.630Z,101306.31
2022-09-04T17:31:53.379Z,101311.56
2022-09-04T17:40:43.137Z,101288.09
2022-09-04T17:40:52.075Z,101281.41
2022-09-04T17:40:56.290Z,101294.16
2022-09-04T17:43:22.701Z,101310.84
2022-09-04T17:45:52.578Z,101303.47
2022-09-04T17:48:24.155Z,101310.59
2022-09-04T17:50:53.808Z,101304.53
2022-09-04T17:53:34.009Z,101298.09
2022-09-04T17:56:07.048Z,101308.47
2022-09-04T17:58:37.935Z,101314.53
2022-09-04T18:01:14.330Z,101309.91
2022-09-04T18:04:19.763Z,101317.03
2022-09-04T18:06:37.632Z,101277.63
2022-09-04T18:09:10.923Z,101303.22
2022-09-04T18:11:41.380Z,101311.19
2022-09-04T18:14:13.088Z,101323.00
2022-09-04T18:17:12.068Z,101313.56
2022-09-04T18:19:43.537Z,101331.38
2022-09-04T18:22:26.769Z,101340.63
2022-09-04T18:25:16.673Z,101339.16
2022-09-04T18:28:05.969Z,101346.81
2022-09-04T18:37:05.277Z,101339.31
2022-09-04T18:37:17.996Z,101350.47
2022-09-04T18:37:24.738Z,101352.16
2022-09-04T18:39:32.410Z,101359.19
2022-09-04T18:50:24.956Z,101361.31
2022-09-04T18:50:32.730Z,101370.47
2022-09-04T18:50:35.126Z,101367.28
2022-09-04T18:53:51.424Z,101377.25
2022-09-04T18:56:22.291Z,101381.06
2022-09-04T18:59:02.347Z,101377.69
2022-09-04T19:01:35.603Z,101374.25
2022-09-04T19:04:30.108Z,101386.13
2022-09-04T19:07:07.073Z,101386.13
2022-09-04T19:09:55.868Z,101381.84
2022-09-04T19:12:25.065Z,101385.56
2022-09-04T19:15:04.029Z,101397.34
2022-09-04T19:17:34.479Z,101390.41
2022-09-04T19:20:06.082Z,101394.00
2022-09-04T19:22:38.052Z,101385.19
2022-09-04T19:25:07.453Z,101389.56
2022-09-04T19:27:38.319Z,101396.94
2022-09-04T19:30:20.098Z,101396.16
2022-09-04T19:33:02.951Z,101396.38
2022-09-04T19:35:36.714Z,101394.69
2022-09-04T19:41:06.432Z,101351.03
2022-09-04T19:46:04.885Z,101389.44
2022-09-04T19:46:09.184Z,101388.59
2022-09-04T19:46:43.575Z,101399.31
2022-09-04T19:51:10.749Z,101396.59
2022-09-04T19:53:23.060Z,101389.44
2022-09-04T19:55:24.491Z,101394.06
2022-09-04T19:57:48.845Z,101388.09
2022-09-04T20:00:42.450Z,101398.72
2022-09-04T20:03:29.865Z,101397.91
2022-09-04T20:06:09.300Z,101407.19
2022-09-04T20:08:51.985Z,101383.19
2022-09-04T20:11:32.420Z,101405.50
2022-09-04T20:14:14.301Z,101409.06
2022-09-04T20:16:48.638Z,101414.53
2022-09-04T20:19:27.675Z,101413.50
2022-09-04T20:21:57.739Z,101408.03
2022-09-04T20:24:27.968Z,101418.13
2022-09-04T20:26:57.692Z,101413.50
2022-09-04T20:29:26.122Z,101415.38
2022-09-04T20:31:55.157Z,101413.50
2022-09-04T20:34:29.438Z,101415.13
2022-09-04T20:37:19.288Z,101407.25
2022-09-04T20:39:50.482Z,101422.53
2022-09-04T20:42:20.967Z,101415.38
2022-09-04T20:47:14.873Z,101422.53
2022-09-04T20:52:45.458Z,101418.97
2022-09-04T20:52:58.600Z,101425.84
2022-09-04T20:53:24.470Z,101422.06
2022-09-04T20:56:07.903Z,101415.75
2022-09-04T21:03:06.398Z,101425.63
2022-09-04T21:03:10.361Z,101414.78
2022-09-04T21:04:43.212Z,101422.91
2022-09-04T21:07:13.865Z,101422.69
2022-09-04T21:09:51.293Z,101396.66
2022-09-04T21:12:30.030Z,101428.97
2022-09-04T21:15:00.901Z,101416.22
2022-09-04T21:17:53.066Z,101431.47
2022-09-04T21:20:36.163Z,101432.09
2022-09-04T21:23:35.646Z,101437.56
2022-09-04T21:26:07.091Z,101438.41
2022-09-04T21:28:46.711Z,101437.56
2022-09-04T21:31:20.799Z,101399.75
2022-09-04T21:33:55.431Z,101438.13
2022-09-04T21:36:27.582Z,101433.50
2022-09-04T21:39:21.156Z,101429.78
2022-09-04T21:42:01.737Z,101422.69
2022-09-04T21:45:07.429Z,101289.31
2022-09-04T21:47:51.504Z,101431.94
2022-09-04T21:50:58.962Z,101436.50
2022-09-04T21:54:24.966Z,101436.50
2022-09-04T22:02:27.916Z,101441.13
2022-09-04T22:02:41.327Z,101442.19
2022-09-04T22:03:30.066Z,101443.25
2022-09-04T22:06:04.459Z,101407.13
2022-09-04T22:13:30.722Z,101425.84
2022-09-04T22:13:34.151Z,101438.63
2022-09-04T22:14:31.183Z,101398.91
2022-09-04T22:17:08.590Z,101434.22
2022-09-04T22:20:07.284Z,101438.84
2022-09-04T22:22:57.331Z,101433.38
2022-09-04T22:26:09.929Z,101404.75
2022-09-04T22:29:02.688Z,101439.94
2022-09-04T22:32:01.596Z,101445.41
2022-09-04T22:34:48.172Z,101436.22
2022-09-04T22:37:45.380Z,101450.03
2022-09-04T22:40:25.968Z,101450.88
2022-09-04T22:43:01.438Z,101459.09
2022-09-04T22:46:02.422Z,101453.84
2022-09-04T22:49:12.455Z,101456.34
2022-09-04T22:52:25.982Z,101454.69
2022-09-04T22:55:09.078Z,101451.09
2022-09-04T22:57:51.171Z,101447.31
2022-09-04T23:00:19.127Z,101451.09
2022-09-04T23:03:10.178Z,101435.59
2022-09-04T23:09:07.293Z,101456.56
2022-09-04T23:13:48.167Z,101421.50
2022-09-04T23:13:58.276Z,101447.75
2022-09-04T23:15:17.173Z,101437.72
2022-09-04T23:19:55.310Z,101455.13
2022-09-04T23:26:33.373Z,101459.53
2022-09-04T23:26:48.446Z,101461.44
2022-09-04T23:27:01.644Z,101464.16
2022-09-04T23:29:52.597Z,101450.72
2022-09-04T23:32:36.765Z,101449.91
2022-09-04T23:35:16.766Z,101456.19
2022-09-04T23:38:10.079Z,101455.38
2022-09-04T23:40:42.372Z,101462.50
2022-09-04T23:43:23.004Z,101448.81
2022-09-04T23:46:19.724Z,101451.53
2022-09-04T23:49:19.648Z,101452.63
2022-09-04T23:51:49.575Z,101449.91
2022-09-04T23:54:39.635Z,101451.81
2022-09-04T23:57:24.182Z,101455.38
2022-09-04T23:59:57.349Z,101449.06
